sensor_id;sensor_type;location;lat;lon;timestamp;pressure;altitude;pressure_sealevel;temperature;humidity
24280;BME280;12395;42.808;23.408;2023-01-31T00:01:13;94453.63;;;-0.94;95.69
24280;BME280;12395;42.808;23.408;2023-01-31T00:03:39;94450.13;;;-1.03;96.20
24280;BME280;12395;42.808;23.408;2023-01-31T00:06:27;94457.31;;;-0.97;96.54
24280;BME280;12395;42.808;23.408;2023-01-31T00:08:54;94448.03;;;-0.99;96.61
24280;BME280;12395;42.808;23.408;2023-01-31T00:11:23;94434.00;;;-1.06;97.23
24280;BME280;12395;42.808;23.408;2023-01-31T00:13:49;94437.63;;;-0.99;96.96
24280;BME280;12395;42.808;23.408;2023-01-31T00:16:16;94442.91;;;-0.91;97.11
24280;BME280;12395;42.808;23.408;2023-01-31T00:18:42;94444.41;;;-0.89;97.50
24280;BME280;12395;42.808;23.408;2023-01-31T00:21:13;94428.56;;;-0.95;97.58
24280;BME280;12395;42.808;23.408;2023-01-31T00:23:41;94434.00;;;-0.89;97.76
24280;BME280;12395;42.808;23.408;2023-01-31T00:26:13;94442.97;;;-0.83;98.11
24280;BME280;12395;42.808;23.408;2023-01-31T00:28:39;94436.31;;;-0.86;98.58
24280;BME280;12395;42.808;23.408;2023-01-31T00:31:05;94452.56;;;-0.84;99.59
24280;BME280;12395;42.808;23.408;2023-01-31T00:33:32;94442.38;;;-0.77;99.73
24280;BME280;12395;42.808;23.408;2023-01-31T00:35:58;94436.81;;;-0.82;99.37
24280;BME280;12395;42.808;23.408;2023-01-31T00:38:26;94415.28;;;-0.92;98.16
24280;BME280;12395;42.808;23.408;2023-01-31T00:40:52;94424.53;;;-0.90;98.24
24280;BME280;12395;42.808;23.408;2023-01-31T00:43:19;94428.19;;;-0.83;98.07
24280;BME280;12395;42.808;23.408;2023-01-31T00:45:44;94414.75;;;-0.96;98.25
24280;BME280;12395;42.808;23.408;2023-01-31T00:48:09;94428.56;;;-0.95;98.70
24280;BME280;12395;42.808;23.408;2023-01-31T00:50:35;94412.97;;;-0.95;98.76
24280;BME280;12395;42.808;23.408;2023-01-31T00:53:00;94422.59;;;-0.88;98.74
24280;BME280;12395;42.808;23.408;2023-01-31T00:55:26;94414.69;;;-0.86;98.51
24280;BME280;12395;42.808;23.408;2023-01-31T00:57:51;94433.00;;;-0.70;98.53
24280;BME280;12395;42.808;23.408;2023-01-31T01:00:17;94424.53;;;-0.72;98.94
24280;BME280;12395;42.808;23.408;2023-01-31T01:02:43;94430.25;;;-0.68;98.54
24280;BME280;12395;42.808;23.408;2023-01-31T01:05:08;94412.63;;;-0.74;98.30
24280;BME280;12395;42.808;23.408;2023-01-31T01:07:34;94435.97;;;-0.65;97.58
24280;BME280;12395;42.808;23.408;2023-01-31T01:09:59;94422.25;;;-0.75;96.58
24280;BME280;12395;42.808;23.408;2023-01-31T01:12:24;94447.53;;;-0.59;96.79
24280;BME280;12395;42.808;23.408;2023-01-31T01:14:50;94437.47;;;-0.62;96.89
24280;BME280;12395;42.808;23.408;2023-01-31T01:17:15;94438.25;;;-0.62;96.19
24280;BME280;12395;42.808;23.408;2023-01-31T01:19:41;94404.63;;;-0.81;95.68
24280;BME280;12395;42.808;23.408;2023-01-31T01:22:06;94430.16;;;-0.59;95.32
24280;BME280;12395;42.808;23.408;2023-01-31T01:24:31;94439.94;;;-0.53;94.48
24280;BME280;12395;42.808;23.408;2023-01-31T01:26:57;94434.47;;;-0.50;94.66
24280;BME280;12395;42.808;23.408;2023-01-31T01:29:22;94424.34;;;-0.53;93.96
24280;BME280;12395;42.808;23.408;2023-01-31T01:31:48;94419.13;;;-0.53;93.55
24280;BME280;12395;42.808;23.408;2023-01-31T01:34:14;94424.66;;;-0.56;93.22
24280;BME280;12395;42.808;23.408;2023-01-31T01:36:40;94414.66;;;-0.68;93.20
24280;BME280;12395;42.808;23.408;2023-01-31T01:39:08;94438.72;;;-0.66;93.23
24280;BME280;12395;42.808;23.408;2023-01-31T01:41:35;94436.72;;;-0.72;93.77
24280;BME280;12395;42.808;23.408;2023-01-31T01:44:03;94426.47;;;-0.74;94.46
24280;BME280;12395;42.808;23.408;2023-01-31T01:46:40;94427.28;;;-0.73;94.90
24280;BME280;12395;42.808;23.408;2023-01-31T01:49:32;94431.59;;;-0.64;95.51
24280;BME280;12395;42.808;23.408;2023-01-31T01:52:02;94442.44;;;-0.69;94.31
24280;BME280;12395;42.808;23.408;2023-01-31T01:54:33;94445.78;;;-0.77;94.30
24280;BME280;12395;42.808;23.408;2023-01-31T01:57:02;94450.41;;;-0.88;94.25
24280;BME280;12395;42.808;23.408;2023-01-31T01:59:33;94436.16;;;-0.84;94.61
24280;BME280;12395;42.808;23.408;2023-01-31T02:02:02;94423.59;;;-0.89;95.37
24280;BME280;12395;42.808;23.408;2023-01-31T02:04:33;94420.31;;;-0.91;95.18
24280;BME280;12395;42.808;23.408;2023-01-31T02:06:59;94430.22;;;-0.94;94.66
24280;BME280;12395;42.808;23.408;2023-01-31T02:09:43;94438.81;;;-0.94;95.59
24280;BME280;12395;42.808;23.408;2023-01-31T02:12:10;94422.66;;;-1.05;95.43
24280;BME280;12395;42.808;23.408;2023-01-31T02:14:36;94409.38;;;-1.20;95.39
24280;BME280;12395;42.808;23.408;2023-01-31T02:17:01;94405.94;;;-1.20;95.60
24280;BME280;12395;42.808;23.408;2023-01-31T02:22:42;94424.94;;;-1.20;95.51
24280;BME280;12395;42.808;23.408;2023-01-31T02:36:02;94443.59;;;-1.24;95.87
24280;BME280;12395;42.808;23.408;2023-01-31T02:39:26;94443.81;;;-1.18;95.64
24280;BME280;12395;42.808;23.408;2023-01-31T02:42:01;94433.19;;;-1.24;95.77
24280;BME280;12395;42.808;23.408;2023-01-31T02:44:51;94450.78;;;-1.18;96.04
24280;BME280;12395;42.808;23.408;2023-01-31T02:52:47;94457.38;;;-1.06;95.65
24280;BME280;12395;42.808;23.408;2023-01-31T02:55:21;94478.94;;;-1.14;95.33
24280;BME280;12395;42.808;23.408;2023-01-31T02:58:08;94461.09;;;-1.26;95.40
24280;BME280;12395;42.808;23.408;2023-01-31T03:00:38;94476.78;;;-1.18;95.26
24280;BME280;12395;42.808;23.408;2023-01-31T03:03:06;94469.66;;;-1.16;95.09
24280;BME280;12395;42.808;23.408;2023-01-31T03:05:33;94486.19;;;-1.17;94.44
24280;BME280;12395;42.808;23.408;2023-01-31T03:08:00;94473.94;;;-1.25;94.87
24280;BME280;12395;42.808;23.408;2023-01-31T03:10:55;94497.84;;;-1.21;95.17
24280;BME280;12395;42.808;23.408;2023-01-31T03:19:14;94490.78;;;-1.29;95.14
24280;BME280;12395;42.808;23.408;2023-01-31T03:21:54;94495.34;;;-1.40;96.00
24280;BME280;12395;42.808;23.408;2023-01-31T03:24:21;94500.75;;;-1.51;96.37
24280;BME280;12395;42.808;23.408;2023-01-31T03:26:54;94509.66;;;-1.54;96.30
24280;BME280;12395;42.808;23.408;2023-01-31T03:29:22;94506.16;;;-1.63;96.55
24280;BME280;12395;42.808;23.408;2023-01-31T03:31:59;94501.66;;;-1.70;96.51
24280;BME280;12395;42.808;23.408;2023-01-31T03:34:29;94502.47;;;-1.70;96.78
24280;BME280;12395;42.808;23.408;2023-01-31T03:37:02;94499.16;;;-1.62;96.79
24280;BME280;12395;42.808;23.408;2023-01-31T03:39:41;94494.47;;;-1.86;97.33
24280;BME280;12395;42.808;23.408;2023-01-31T03:42:15;94488.25;;;-1.93;97.86
24280;BME280;12395;42.808;23.408;2023-01-31T03:47:29;94480.38;;;-2.20;98.59
24280;BME280;12395;42.808;23.408;2023-01-31T03:49:58;94487.75;;;-2.15;99.28
24280;BME280;12395;42.808;23.408;2023-01-31T03:52:33;94506.88;;;-2.16;99.89
24280;BME280;12395;42.808;23.408;2023-01-31T03:55:08;94501.81;;;-2.18;99.82
24280;BME280;12395;42.808;23.408;2023-01-31T03:57:36;94518.63;;;-2.12;99.73
24280;BME280;12395;42.808;23.408;2023-01-31T04:00:06;94515.63;;;-2.17;99.71
24280;BME280;12395;42.808;23.408;2023-01-31T04:02:34;94522.97;;;-2.03;99.37
24280;BME280;12395;42.808;23.408;2023-01-31T04:05:17;94520.06;;;-1.91;98.94
24280;BME280;12395;42.808;23.408;2023-01-31T04:07:45;94530.66;;;-1.75;98.46
24280;BME280;12395;42.808;23.408;2023-01-31T04:10:14;94528.69;;;-1.63;97.62
24280;BME280;12395;42.808;23.408;2023-01-31T04:12:42;94507.28;;;-1.75;97.43
24280;BME280;12395;42.808;23.408;2023-01-31T04:15:08;94535.41;;;-1.70;97.32
24280;BME280;12395;42.808;23.408;2023-01-31T04:17:33;94518.91;;;-1.79;97.55
24280;BME280;12395;42.808;23.408;2023-01-31T04:19:59;94513.22;;;-1.92;97.93
24280;BME280;12395;42.808;23.408;2023-01-31T04:22:24;94526.63;;;-1.96;98.40
24280;BME280;12395;42.808;23.408;2023-01-31T04:24:50;94518.16;;;-1.98;99.36
24280;BME280;12395;42.808;23.408;2023-01-31T04:27:15;94517.22;;;-1.97;99.98
24280;BME280;12395;42.808;23.408;2023-01-31T04:29:41;94535.47;;;-1.80;100.00
24280;BME280;12395;42.808;23.408;2023-01-31T04:32:06;94549.38;;;-1.71;100.00
24280;BME280;12395;42.808;23.408;2023-01-31T04:34:31;94537.06;;;-1.69;100.00
24280;BME280;12395;42.808;23.408;2023-01-31T04:36:57;94547.38;;;-1.50;100.00
24280;BME280;12395;42.808;23.408;2023-01-31T04:39:22;94540.50;;;-1.41;100.00
24280;BME280;12395;42.808;23.408;2023-01-31T04:41:48;94552.84;;;-1.26;100.00
24280;BME280;12395;42.808;23.408;2023-01-31T04:44:13;94550.69;;;-1.30;100.00
24280;BME280;12395;42.808;23.408;2023-01-31T04:46:41;94562.53;;;-1.18;100.00
24280;BME280;12395;42.808;23.408;2023-01-31T04:49:09;94556.50;;;-1.19;100.00
24280;BME280;12395;42.808;23.408;2023-01-31T04:51:34;94556.75;;;-1.12;100.00
24280;BME280;12395;42.808;23.408;2023-01-31T04:54:00;94559.44;;;-1.04;100.00
24280;BME280;12395;42.808;23.408;2023-01-31T04:56:26;94528.19;;;-1.22;100.00
24280;BME280;12395;42.808;23.408;2023-01-31T04:58:51;94547.09;;;-1.02;100.00
24280;BME280;12395;42.808;23.408;2023-01-31T05:01:16;94555.81;;;-0.94;99.34
24280;BME280;12395;42.808;23.408;2023-01-31T05:03:42;94546.44;;;-1.04;99.33
24280;BME280;12395;42.808;23.408;2023-01-31T05:06:07;94552.53;;;-0.96;99.27
24280;BME280;12395;42.808;23.408;2023-01-31T05:08:33;94573.28;;;-0.86;99.28
24280;BME280;12395;42.808;23.408;2023-01-31T05:10:59;94560.88;;;-0.92;99.18
24280;BME280;12395;42.808;23.408;2023-01-31T05:13:25;94562.25;;;-0.98;98.94
24280;BME280;12395;42.808;23.408;2023-01-31T05:15:51;94567.53;;;-0.90;99.28
24280;BME280;12395;42.808;23.408;2023-01-31T05:18:17;94576.56;;;-0.84;99.43
24280;BME280;12395;42.808;23.408;2023-01-31T05:20:42;94561.81;;;-0.93;99.53
24280;BME280;12395;42.808;23.408;2023-01-31T05:23:08;94576.56;;;-0.84;99.43
24280;BME280;12395;42.808;23.408;2023-01-31T05:25:35;94578.06;;;-0.82;99.51
24280;BME280;12395;42.808;23.408;2023-01-31T05:28:02;94571.44;;;-0.76;99.65
24280;BME280;12395;42.808;23.408;2023-01-31T05:30:27;94546.22;;;-0.93;99.36
24280;BME280;12395;42.808;23.408;2023-01-31T05:32:53;94579.84;;;-0.64;99.27
24280;BME280;12395;42.808;23.408;2023-01-31T05:35:18;94566.31;;;-0.68;99.02
24280;BME280;12395;42.808;23.408;2023-01-31T05:37:43;94559.84;;;-0.64;98.87
24280;BME280;12395;42.808;23.408;2023-01-31T05:40:15;94578.28;;;-0.57;98.62
24280;BME280;12395;42.808;23.408;2023-01-31T05:42:41;94575.59;;;-0.65;99.12
24280;BME280;12395;42.808;23.408;2023-01-31T05:45:08;94584.31;;;-0.57;99.69
24280;BME280;12395;42.808;23.408;2023-01-31T05:47:34;94573.66;;;-0.63;99.89
24280;BME280;12395;42.808;23.408;2023-01-31T05:50:00;94572.28;;;-0.58;99.73
24280;BME280;12395;42.808;23.408;2023-01-31T05:52:26;94575.22;;;-0.53;99.42
24280;BME280;12395;42.808;23.408;2023-01-31T05:54:51;94575.91;;;-0.51;99.53
24280;BME280;12395;42.808;23.408;2023-01-31T05:57:17;94580.88;;;-0.40;99.51
24280;BME280;12395;42.808;23.408;2023-01-31T05:59:42;94592.34;;;-0.33;99.72
24280;BME280;12395;42.808;23.408;2023-01-31T06:02:08;94597.38;;;-0.31;99.91
24280;BME280;12395;42.808;23.408;2023-01-31T06:04:35;94577.31;;;-0.39;99.91
24280;BME280;12395;42.808;23.408;2023-01-31T06:07:01;94590.63;;;-0.24;100.00
24280;BME280;12395;42.808;23.408;2023-01-31T06:09:26;94587.47;;;-0.28;99.86
24280;BME280;12395;42.808;23.408;2023-01-31T06:11:52;94604.53;;;-0.16;100.00
24280;BME280;12395;42.808;23.408;2023-01-31T06:14:17;94600.22;;;-0.07;99.92
24280;BME280;12395;42.808;23.408;2023-01-31T06:16:43;94600.22;;;-0.07;99.35
24280;BME280;12395;42.808;23.408;2023-01-31T06:19:08;94595.66;;;-0.05;99.58
24280;BME280;12395;42.808;23.408;2023-01-31T06:21:33;94592.91;;;-0.04;98.85
24280;BME280;12395;42.808;23.408;2023-01-31T06:23:59;94587.84;;;-0.05;98.89
24280;BME280;12395;42.808;23.408;2023-01-31T06:26:24;94608.22;;;-0.01;99.07
24280;BME280;12395;42.808;23.408;2023-01-31T06:28:50;94610.69;;;0.01;99.12
24280;BME280;12395;42.808;23.408;2023-01-31T06:31:15;94596.53;;;0.04;98.90
24280;BME280;12395;42.808;23.408;2023-01-31T06:33:41;94605.06;;;0.14;98.54
24280;BME280;12395;42.808;23.408;2023-01-31T06:36:06;94619.44;;;0.18;98.12
24280;BME280;12395;42.808;23.408;2023-01-31T06:38:32;94632.66;;;0.24;98.14
24280;BME280;12395;42.808;23.408;2023-01-31T06:40:57;94613.22;;;0.11;97.64
24280;BME280;12395;42.808;23.408;2023-01-31T06:43:23;94615.44;;;0.06;97.30
24280;BME280;12395;42.808;23.408;2023-01-31T06:45:48;94611.94;;;0.15;97.48
24280;BME280;12395;42.808;23.408;2023-01-31T06:48:14;94620.09;;;0.20;97.96
24280;BME280;12395;42.808;23.408;2023-01-31T06:50:40;94625.97;;;0.22;98.52
24280;BME280;12395;42.808;23.408;2023-01-31T06:53:05;94609.47;;;0.13;98.86
24280;BME280;12395;42.808;23.408;2023-01-31T06:55:31;94613.34;;;0.35;98.32
24280;BME280;12395;42.808;23.408;2023-01-31T06:57:56;94616.00;;;0.43;98.23
24280;BME280;12395;42.808;23.408;2023-01-31T07:00:22;94616.53;;;0.46;98.60
24280;BME280;12395;42.808;23.408;2023-01-31T07:02:49;94632.88;;;0.56;98.33
24280;BME280;12395;42.808;23.408;2023-01-31T07:05:15;94625.03;;;0.48;99.30
24280;BME280;12395;42.808;23.408;2023-01-31T07:07:41;94632.38;;;0.53;99.16
24280;BME280;12395;42.808;23.408;2023-01-31T07:10:06;94617.56;;;0.53;98.61
24280;BME280;12395;42.808;23.408;2023-01-31T07:12:32;94629.31;;;0.57;98.69
24280;BME280;12395;42.808;23.408;2023-01-31T07:14:57;94635.25;;;0.67;98.36
24280;BME280;12395;42.808;23.408;2023-01-31T07:17:23;94639.84;;;0.73;98.55
24280;BME280;12395;42.808;23.408;2023-01-31T07:19:48;94645.97;;;0.64;98.30
24280;BME280;12395;42.808;23.408;2023-01-31T07:22:13;94648.31;;;0.50;98.85
24280;BME280;12395;42.808;23.408;2023-01-31T07:24:39;94641.69;;;0.55;99.25
24280;BME280;12395;42.808;23.408;2023-01-31T07:27:05;94625.91;;;0.57;99.24
24280;BME280;12395;42.808;23.408;2023-01-31T07:29:30;94613.16;;;0.54;98.76
24280;BME280;12395;42.808;23.408;2023-01-31T07:31:55;94636.59;;;0.79;98.64
24280;BME280;12395;42.808;23.408;2023-01-31T07:34:21;94635.50;;;0.90;98.24
24280;BME280;12395;42.808;23.408;2023-01-31T07:36:50;94641.00;;;1.05;97.20
24280;BME280;12395;42.808;23.408;2023-01-31T07:39:16;94637.22;;;1.07;97.54
24280;BME280;12395;42.808;23.408;2023-01-31T07:41:42;94637.50;;;1.30;96.74
24280;BME280;12395;42.808;23.408;2023-01-31T07:44:08;94646.16;;;1.38;95.68
24280;BME280;12395;42.808;23.408;2023-01-31T07:46:37;94639.69;;;1.50;94.79
24280;BME280;12395;42.808;23.408;2023-01-31T07:49:03;94646.91;;;1.65;94.44
24280;BME280;12395;42.808;23.408;2023-01-31T07:51:29;94644.78;;;1.68;93.97
24280;BME280;12395;42.808;23.408;2023-01-31T07:53:55;94648.88;;;1.87;93.92
24280;BME280;12395;42.808;23.408;2023-01-31T07:56:20;94647.44;;;1.92;91.83
24280;BME280;12395;42.808;23.408;2023-01-31T07:58:47;94648.72;;;1.88;91.89
24280;BME280;12395;42.808;23.408;2023-01-31T08:01:19;94643.84;;;1.93;91.91
24280;BME280;12395;42.808;23.408;2023-01-31T08:04:05;94634.88;;;1.96;92.47
24280;BME280;12395;42.808;23.408;2023-01-31T08:06:30;94625.88;;;1.74;92.42
24280;BME280;12395;42.808;23.408;2023-01-31T08:08:57;94617.84;;;1.60;93.69
24280;BME280;12395;42.808;23.408;2023-01-31T08:11:22;94628.81;;;1.95;94.37
24280;BME280;12395;42.808;23.408;2023-01-31T08:13:48;94631.28;;;2.05;93.39
24280;BME280;12395;42.808;23.408;2023-01-31T08:16:13;94621.81;;;2.04;93.25
24280;BME280;12395;42.808;23.408;2023-01-31T08:18:39;94628.34;;;2.08;92.89
24280;BME280;12395;42.808;23.408;2023-01-31T08:21:05;94629.66;;;2.20;92.65
24280;BME280;12395;42.808;23.408;2023-01-31T08:23:31;94638.47;;;2.19;92.92
24280;BME280;12395;42.808;23.408;2023-01-31T08:26:05;94648.75;;;2.20;92.85
24280;BME280;12395;42.808;23.408;2023-01-31T08:28:31;94651.22;;;2.22;93.18
24280;BME280;12395;42.808;23.408;2023-01-31T08:30:57;94647.94;;;2.36;93.51
24280;BME280;12395;42.808;23.408;2023-01-31T08:33:23;94651.53;;;2.19;93.21
24280;BME280;12395;42.808;23.408;2023-01-31T08:35:49;94636.19;;;2.00;94.15
24280;BME280;12395;42.808;23.408;2023-01-31T08:38:14;94642.56;;;2.13;94.50
24280;BME280;12395;42.808;23.408;2023-01-31T08:40:40;94630.31;;;1.98;94.49
24280;BME280;12395;42.808;23.408;2023-01-31T08:43:05;94642.41;;;2.07;94.98
24280;BME280;12395;42.808;23.408;2023-01-31T08:45:31;94620.38;;;2.09;95.27
24280;BME280;12395;42.808;23.408;2023-01-31T08:47:58;94634.56;;;2.39;94.83
24280;BME280;12395;42.808;23.408;2023-01-31T08:50:27;94638.63;;;2.58;94.70
24280;BME280;12395;42.808;23.408;2023-01-31T08:52:54;94635.69;;;2.61;93.95
24280;BME280;12395;42.808;23.408;2023-01-31T08:55:21;94650.22;;;2.63;93.08
24280;BME280;12395;42.808;23.408;2023-01-31T08:57:47;94630.66;;;2.35;93.40
24280;BME280;12395;42.808;23.408;2023-01-31T09:00:13;94621.34;;;2.32;94.46
24280;BME280;12395;42.808;23.408;2023-01-31T09:02:39;94621.63;;;2.38;94.05
24280;BME280;12395;42.808;23.408;2023-01-31T09:05:05;94639.94;;;2.46;94.05
24280;BME280;12395;42.808;23.408;2023-01-31T09:07:33;94628.66;;;2.45;94.55
24280;BME280;12395;42.808;23.408;2023-01-31T09:09:58;94624.25;;;2.54;93.91
24280;BME280;12395;42.808;23.408;2023-01-31T09:12:23;94616.91;;;2.41;93.50
24280;BME280;12395;42.808;23.408;2023-01-31T09:14:49;94606.41;;;2.57;93.17
24280;BME280;12395;42.808;23.408;2023-01-31T09:17:15;94616.63;;;2.91;93.00
24280;BME280;12395;42.808;23.408;2023-01-31T09:19:41;94617.06;;;3.19;91.28
24280;BME280;12395;42.808;23.408;2023-01-31T09:22:06;94623.72;;;3.29;87.59
24280;BME280;12395;42.808;23.408;2023-01-31T09:24:31;94623.38;;;3.32;85.76
24280;BME280;12395;42.808;23.408;2023-01-31T09:26:57;94607.88;;;3.23;84.31
24280;BME280;12395;42.808;23.408;2023-01-31T09:29:22;94618.22;;;3.47;85.19
24280;BME280;12395;42.808;23.408;2023-01-31T09:31:51;94617.94;;;3.42;85.07
24280;BME280;12395;42.808;23.408;2023-01-31T09:34:17;94618.88;;;3.49;84.32
24280;BME280;12395;42.808;23.408;2023-01-31T09:36:44;94613.75;;;3.63;85.80
24280;BME280;12395;42.808;23.408;2023-01-31T09:39:10;94615.41;;;3.87;83.81
24280;BME280;12395;42.808;23.408;2023-01-31T09:41:41;94609.91;;;3.97;78.99
24280;BME280;12395;42.808;23.408;2023-01-31T09:47:19;94625.75;;;3.80;78.49
24280;BME280;12395;42.808;23.408;2023-01-31T09:49:57;94609.59;;;3.69;78.44
24280;BME280;12395;42.808;23.408;2023-01-31T09:52:24;94598.53;;;3.59;78.34
24280;BME280;12395;42.808;23.408;2023-01-31T09:54:51;94587.50;;;3.41;78.16
24280;BME280;12395;42.808;23.408;2023-01-31T09:57:51;94586.16;;;3.45;78.90
24280;BME280;12395;42.808;23.408;2023-01-31T10:00:26;94580.09;;;3.52;78.73
24280;BME280;12395;42.808;23.408;2023-01-31T10:03:18;94594.34;;;3.72;78.53
24280;BME280;12395;42.808;23.408;2023-01-31T10:05:53;94590.63;;;3.89;77.28
24280;BME280;12395;42.808;23.408;2023-01-31T10:11:10;94610.81;;;3.89;72.73
24280;BME280;12395;42.808;23.408;2023-01-31T10:13:44;94574.16;;;3.81;74.20
24280;BME280;12395;42.808;23.408;2023-01-31T10:16:31;94581.63;;;4.15;75.71
24280;BME280;12395;42.808;23.408;2023-01-31T10:19:05;94579.75;;;4.23;76.23
24280;BME280;12395;42.808;23.408;2023-01-31T10:22:03;94586.91;;;4.29;74.68
24280;BME280;12395;42.808;23.408;2023-01-31T10:24:35;94571.16;;;4.29;75.04
24280;BME280;12395;42.808;23.408;2023-01-31T10:27:08;94575.50;;;4.59;74.40
24280;BME280;12395;42.808;23.408;2023-01-31T10:29:41;94576.34;;;4.52;74.35
24280;BME280;12395;42.808;23.408;2023-01-31T10:32:24;94565.41;;;4.48;73.26
24280;BME280;12395;42.808;23.408;2023-01-31T10:34:59;94574.56;;;4.52;72.25
24280;BME280;12395;42.808;23.408;2023-01-31T10:37:49;94581.59;;;4.37;72.74
24280;BME280;12395;42.808;23.408;2023-01-31T10:40:21;94578.56;;;4.26;73.93
24280;BME280;12395;42.808;23.408;2023-01-31T10:42:56;94580.97;;;4.13;73.41
24280;BME280;12395;42.808;23.408;2023-01-31T10:45:27;94580.28;;;3.96;73.54
24280;BME280;12395;42.808;23.408;2023-01-31T10:56:08;94593.34;;;4.04;72.12
24280;BME280;12395;42.808;23.408;2023-01-31T10:58:35;94576.41;;;4.07;72.29
24280;BME280;12395;42.808;23.408;2023-01-31T11:01:03;94585.00;;;4.23;72.38
24280;BME280;12395;42.808;23.408;2023-01-31T11:03:32;94585.91;;;4.30;73.09
24280;BME280;12395;42.808;23.408;2023-01-31T11:05:58;94558.50;;;4.33;73.99
24280;BME280;12395;42.808;23.408;2023-01-31T11:08:35;94582.28;;;4.31;73.61
24280;BME280;12395;42.808;23.408;2023-01-31T11:11:09;94581.66;;;4.29;73.64
24280;BME280;12395;42.808;23.408;2023-01-31T11:13:36;94582.47;;;4.30;73.88
24280;BME280;12395;42.808;23.408;2023-01-31T11:16:03;94577.34;;;4.14;74.67
24280;BME280;12395;42.808;23.408;2023-01-31T11:18:43;94588.06;;;4.27;74.77
24280;BME280;12395;42.808;23.408;2023-01-31T11:21:09;94582.66;;;4.06;75.43
24280;BME280;12395;42.808;23.408;2023-01-31T11:23:44;94584.59;;;4.12;75.69
24280;BME280;12395;42.808;23.408;2023-01-31T11:26:09;94600.19;;;4.05;75.82
24280;BME280;12395;42.808;23.408;2023-01-31T11:28:39;94571.38;;;3.82;76.73
24280;BME280;12395;42.808;23.408;2023-01-31T11:31:14;94572.53;;;3.80;78.32
24280;BME280;12395;42.808;23.408;2023-01-31T11:33:47;94569.69;;;3.67;77.18
24280;BME280;12395;42.808;23.408;2023-01-31T11:36:19;94586.41;;;3.58;78.34
24280;BME280;12395;42.808;23.408;2023-01-31T11:38:50;94594.38;;;3.42;78.85
24280;BME280;12395;42.808;23.408;2023-01-31T11:41:25;94601.31;;;3.27;80.95
24280;BME280;12395;42.808;23.408;2023-01-31T11:44:15;94566.25;;;3.05;82.77
24280;BME280;12395;42.808;23.408;2023-01-31T11:46:52;94588.47;;;3.09;83.47
24280;BME280;12395;42.808;23.408;2023-01-31T11:49:40;94592.06;;;3.08;85.68
24280;BME280;12395;42.808;23.408;2023-01-31T11:52:13;94600.78;;;2.92;88.14
24280;BME280;12395;42.808;23.408;2023-01-31T11:54:43;94571.38;;;2.90;90.74
24280;BME280;12395;42.808;23.408;2023-01-31T11:57:15;94577.38;;;2.99;91.29
24280;BME280;12395;42.808;23.408;2023-01-31T11:59:42;94582.13;;;3.03;91.13
24280;BME280;12395;42.808;23.408;2023-01-31T12:04:52;94565.50;;;2.80;92.91
24280;BME280;12395;42.808;23.408;2023-01-31T12:07:27;94575.00;;;2.81;94.41
24280;BME280;12395;42.808;23.408;2023-01-31T12:09:55;94568.31;;;2.71;94.93
24280;BME280;12395;42.808;23.408;2023-01-31T12:12:22;94581.91;;;2.66;95.75
24280;BME280;12395;42.808;23.408;2023-01-31T12:14:49;94574.06;;;2.66;97.26
24280;BME280;12395;42.808;23.408;2023-01-31T12:17:16;94557.75;;;2.56;97.67
24280;BME280;12395;42.808;23.408;2023-01-31T12:19:57;94567.38;;;2.56;98.59
24280;BME280;12395;42.808;23.408;2023-01-31T12:22:33;94572.28;;;2.59;98.60
24280;BME280;12395;42.808;23.408;2023-01-31T12:33:37;94574.59;;;2.38;97.42
24280;BME280;12395;42.808;23.408;2023-01-31T12:36:24;94584.22;;;2.45;98.84
24280;BME280;12395;42.808;23.408;2023-01-31T12:45:12;94580.25;;;2.65;96.63
24280;BME280;12395;42.808;23.408;2023-01-31T12:50:49;94575.38;;;2.62;95.28
24280;BME280;12395;42.808;23.408;2023-01-31T13:03:47;94568.88;;;2.50;95.23
24280;BME280;12395;42.808;23.408;2023-01-31T13:06:22;94561.03;;;2.42;95.40
24280;BME280;12395;42.808;23.408;2023-01-31T13:09:20;94586.00;;;2.53;95.98
24280;BME280;12395;42.808;23.408;2023-01-31T13:14:30;94571.50;;;2.34;94.48
24280;BME280;12395;42.808;23.408;2023-01-31T13:17:03;94583.59;;;2.27;96.48
24280;BME280;12395;42.808;23.408;2023-01-31T13:19:48;94590.47;;;2.28;97.62
24280;BME280;12395;42.808;23.408;2023-01-31T13:22:23;94582.09;;;2.41;98.89
24280;BME280;12395;42.808;23.408;2023-01-31T13:27:39;94585.13;;;2.76;97.61
24280;BME280;12395;42.808;23.408;2023-01-31T13:32:45;94583.16;;;2.86;97.70
24280;BME280;12395;42.808;23.408;2023-01-31T13:35:22;94562.38;;;2.93;95.44
24280;BME280;12395;42.808;23.408;2023-01-31T13:37:52;94548.56;;;3.07;95.16
24280;BME280;12395;42.808;23.408;2023-01-31T13:40:23;94571.88;;;3.25;92.79
24280;BME280;12395;42.808;23.408;2023-01-31T13:42:50;94576.13;;;3.26;91.93
24280;BME280;12395;42.808;23.408;2023-01-31T13:45:30;94588.91;;;3.21;91.09
24280;BME280;12395;42.808;23.408;2023-01-31T13:48:02;94577.16;;;3.08;90.09
24280;BME280;12395;42.808;23.408;2023-01-31T13:50:41;94575.59;;;2.91;90.16
24280;BME280;12395;42.808;23.408;2023-01-31T13:53:32;94576.88;;;3.03;90.62
24280;BME280;12395;42.808;23.408;2023-01-31T13:56:01;94582.22;;;3.18;90.44
24280;BME280;12395;42.808;23.408;2023-01-31T13:58:31;94582.03;;;3.20;88.97
24280;BME280;12395;42.808;23.408;2023-01-31T14:01:03;94581.06;;;3.21;88.00
24280;BME280;12395;42.808;23.408;2023-01-31T14:03:29;94579.78;;;3.08;87.04
24280;BME280;12395;42.808;23.408;2023-01-31T14:06:04;94581.13;;;3.04;86.29
24280;BME280;12395;42.808;23.408;2023-01-31T14:11:06;94593.09;;;2.99;86.64
24280;BME280;12395;42.808;23.408;2023-01-31T14:14:09;94608.66;;;2.92;86.47
24280;BME280;12395;42.808;23.408;2023-01-31T14:16:41;94605.38;;;2.82;86.85
24280;BME280;12395;42.808;23.408;2023-01-31T14:27:22;94606.41;;;2.65;87.08
24280;BME280;12395;42.808;23.408;2023-01-31T14:35:18;94604.16;;;2.54;88.23
24280;BME280;12395;42.808;23.408;2023-01-31T14:46:17;94638.47;;;2.43;87.85
24280;BME280;12395;42.808;23.408;2023-01-31T14:54:58;94636.34;;;2.39;88.58
24280;BME280;12395;42.808;23.408;2023-01-31T14:57:30;94639.28;;;2.27;87.74
24280;BME280;12395;42.808;23.408;2023-01-31T15:05:14;94647.97;;;2.20;88.17